Time;durP1;ratioP1;P1;durP2;ratioP2;P2;SDS_P1;SDS_P2;PMS_P1;PMS_P2;Temp;Humidity;BMP_temperature;BMP_pressure;BME280_temperature;BME280_humidity;BME280_pressure;Samples;Min_cycle;Max_cycle;Signal;HPM_P1;HPM_P2
2022/06/22 00:02:21;;;;;;;4.90;3.00;;;19.40;79.00;;;;;;10509251;28;20559;-57
2022/06/22 00:07:32;;;;;;;3.58;2.95;;;19.30;79.00;;;;;;10500440;28;20316;-61
2022/06/22 00:12:33;;;;;;;3.92;3.15;;;19.30;79.00;;;;;;10509419;28;20120;-57
2022/06/22 00:17:37;;;;;;;3.20;2.90;;;19.30;79.00;;;;;;10502987;28;20385;-59
2022/06/22 00:22:54;;;;;;;5.53;2.90;;;19.30;79.00;;;;;;10496402;28;20032;-60
2022/06/22 00:27:55;;;;;;;5.27;2.93;;;19.20;78.90;;;;;;10500962;28;20029;-59
2022/06/22 00:33:13;;;;;;;5.25;2.90;;;19.20;78.90;;;;;;10499637;28;20048;-57
2022/06/22 00:38:21;;;;;;;;;;;19.10;78.90;;;;;;10506592;28;20048;-58
2022/06/22 00:43:28;;;;;;;3.63;2.72;;;19.10;78.70;;;;;;10502178;28;20019;-58
2022/06/22 00:48:34;;;;;;;4.25;2.90;;;19.00;78.80;;;;;;10509678;28;20016;-57
2022/06/22 00:53:42;;;;;;;4.45;3.03;;;19.00;78.80;;;;;;10499570;28;20021;-57
2022/06/22 00:58:59;;;;;;;3.80;2.83;;;19.00;78.80;;;;;;10504520;28;20024;-58
2022/06/22 01:04:19;;;;;;;6.03;2.88;;;19.00;78.90;;;;;;10496563;28;20127;-57
2022/06/22 01:09:46;;;;;;;4.68;2.83;;;18.90;78.80;;;;;;10503266;28;20023;-57
2022/06/22 01:15:12;;;;;;;4.75;3.08;;;18.90;78.90;;;;;;10501396;28;20489;-57
2022/06/22 01:20:35;;;;;;;4.85;3.50;;;18.90;78.80;;;;;;10505287;28;20042;-60
2022/06/22 01:25:35;;;;;;;4.85;3.08;;;18.90;78.80;;;;;;10503518;28;20020;-57
2022/06/22 01:30:40;;;;;;;3.70;2.80;;;18.80;78.90;;;;;;10506156;28;20090;-58
2022/06/22 01:35:41;;;;;;;3.97;2.67;;;18.80;78.90;;;;;;10498017;28;20107;-59
2022/06/22 01:41:08;;;;;;;3.38;2.55;;;18.70;78.90;;;;;;10500041;28;20505;-57
2022/06/22 01:46:35;;;;;;;3.63;3.03;;;18.70;78.80;;;;;;10500042;28;20381;-58
2022/06/22 01:51:43;;;;;;;3.25;2.70;;;18.70;78.90;;;;;;10509718;28;20027;-57
2022/06/22 01:56:51;;;;;;;5.05;3.13;;;18.60;78.80;;;;;;10507927;28;20511;-57
2022/06/22 02:02:01;;;;;;;3.72;2.42;;;18.60;79.40;;;;;;10506538;28;20036;-57
2022/06/22 02:12:37;;;;;;;3.78;2.80;;;18.50;78.80;;;;;;10494460;28;20032;-59
2022/06/22 02:17:41;;;;;;;3.00;2.70;;;18.50;78.80;;;;;;10497099;28;20037;-57
2022/06/22 02:22:42;;;;;;;4.63;2.88;;;18.50;78.80;;;;;;10501562;28;20056;-56
2022/06/22 02:27:43;;;;;;;4.80;3.30;;;18.50;78.80;;;;;;10512259;28;20530;-57
2022/06/22 02:32:45;;;;;;;3.70;2.70;;;18.50;78.80;;;;;;10507371;28;20031;-56
2022/06/22 02:38:07;;;;;;;3.60;2.80;;;18.40;78.80;;;;;;10501949;28;20028;-59
2022/06/22 02:48:32;;;;;;;5.25;3.28;;;18.30;78.80;;;;;;10511341;28;20430;-56
2022/06/22 02:53:36;;;;;;;4.88;3.00;;;18.30;78.80;;;;;;10510091;28;20035;-56
2022/06/22 02:58:38;;;;;;;4.13;2.72;;;18.30;78.80;;;;;;10496617;28;20439;-56
2022/06/22 03:03:41;;;;;;;3.72;2.63;;;18.20;78.70;;;;;;10504061;28;20285;-56
2022/06/22 03:08:42;;;;;;;3.60;2.80;;;18.20;78.70;;;;;;10512927;28;20031;-57
2022/06/22 03:13:45;;;;;;;4.32;2.65;;;18.20;78.70;;;;;;10505299;28;20056;-57
2022/06/22 03:18:50;;;;;;;4.57;2.75;;;18.20;78.70;;;;;;10511827;28;20483;-58
2022/06/22 03:24:32;;;;;;;4.18;2.47;;;18.10;78.60;;;;;;10515487;28;20032;-56
2022/06/22 03:29:45;;;;;;;4.00;2.90;;;18.20;78.70;;;;;;10411771;28;20043;-58
2022/06/22 03:34:50;;;;;;;3.35;2.40;;;18.10;78.70;;;;;;10504865;28;20016;-56
2022/06/22 03:39:56;;;;;;;4.55;2.97;;;18.10;78.70;;;;;;10502965;28;20390;-59
2022/06/22 03:45:00;;;;;;;3.05;2.58;;;18.00;78.60;;;;;;10496452;28;20035;-59
2022/06/22 03:50:08;;;;;;;2.72;2.42;;;18.00;78.60;;;;;;10433987;28;20035;-56
2022/06/22 03:55:22;;;;;;;3.63;2.15;;;18.00;78.70;;;;;;10407961;28;20032;-57
2022/06/22 04:00:23;;;;;;;2.70;2.42;;;18.00;78.70;;;;;;10410124;28;20695;-57
2022/06/22 04:05:28;;;;;;;3.40;2.30;;;17.90;78.60;;;;;;10411404;28;20067;-56
2022/06/22 04:10:35;;;;;;;2.65;2.45;;;17.90;78.60;;;;;;10411111;28;20030;-58
2022/06/22 04:15:52;;;;;;;3.55;2.20;;;17.90;78.60;;;;;;10412829;28;20475;-56
2022/06/22 04:20:59;;;;;;;2.58;2.38;;;17.90;78.80;;;;;;10411627;28;20040;-56
2022/06/22 04:26:11;;;;;;;2.70;2.30;;;17.90;78.70;;;;;;10403734;28;20028;-56
2022/06/22 04:31:19;;;;;;;2.42;2.22;;;17.80;78.60;;;;;;10402403;28;20036;-57
2022/06/22 04:36:27;;;;;;;4.80;2.30;;;17.80;78.60;;;;;;10404519;28;20029;-57
2022/06/22 04:41:36;;;;;;;2.40;2.08;;;17.80;78.60;;;;;;10400335;28;20312;-57
2022/06/22 04:46:46;;;;;;;2.85;2.40;;;17.80;78.60;;;;;;10396416;28;20593;-58
2022/06/22 04:52:02;;;;;;;3.30;2.33;;;17.80;78.60;;;;;;10405929;28;20139;-57
2022/06/22 04:57:11;;;;;;;9.00;3.70;;;17.50;78.50;;;;;;10399770;28;20020;-56
2022/06/22 05:02:14;;;;;;;4.85;3.28;;;17.70;78.80;;;;;;10403330;28;20046;-56
2022/06/22 05:07:30;;;;;;;3.90;2.83;;;17.70;78.80;;;;;;10407682;28;20028;-57
2022/06/22 05:12:45;;;;;;;6.35;3.28;;;17.70;79.00;;;;;;10403943;28;20990;-56
2022/06/22 05:17:46;;;;;;;5.35;2.88;;;17.70;79.00;;;;;;10410053;28;20036;-57
2022/06/22 05:22:52;;;;;;;7.75;2.85;;;17.70;79.10;;;;;;10401501;28;20040;-56
2022/06/22 05:28:11;;;;;;;4.30;3.10;;;17.70;79.40;;;;;;10401829;28;20028;-57
2022/06/22 05:33:17;;;;;;;5.63;2.88;;;17.70;79.00;;;;;;10407806;28;20912;-56
2022/06/22 05:38:19;;;;;;;3.55;2.65;;;17.70;79.00;;;;;;10408861;28;20036;-56
2022/06/22 05:43:21;;;;;;;5.40;3.13;;;17.70;79.00;;;;;;10405274;28;20048;-57
2022/06/22 05:48:25;;;;;;;3.70;2.85;;;17.50;78.90;;;;;;10410695;28;20053;-56
2022/06/22 05:53:42;;;;;;;5.47;3.00;;;17.70;78.90;;;;;;10406699;28;20020;-54
2022/06/22 05:59:00;;;;;;;5.70;2.90;;;17.70;79.00;;;;;;10403952;28;20799;-56
2022/06/22 06:04:20;;;;;;;5.07;3.33;;;17.70;79.00;;;;;;10408659;28;20028;-57
2022/06/22 06:09:24;;;;;;;3.25;2.80;;;17.80;79.10;;;;;;10401975;28;20032;-57
2022/06/22 06:14:33;;;;;;;3.63;3.00;;;17.80;79.20;;;;;;10404653;28;20862;-56
2022/06/22 06:19:38;;;;;;;4.43;3.45;;;17.80;79.40;;;;;;10404906;28;20024;-59
2022/06/22 06:27:34;;;;;;;4.47;2.85;;;17.80;79.40;;;;;;10411629;28;20036;-60
2022/06/22 06:30:13;;;;;;;3.20;2.75;;;17.90;79.50;;;;;;10408052;28;20071;-59
2022/06/22 06:35:40;;;;;;;4.55;2.88;;;17.90;79.50;;;;;;10413111;28;20111;-62
2022/06/22 06:40:52;;;;;;;13.40;7.50;;;17.90;79.60;;;;;;10394238;28;20048;-61
2022/06/22 06:45:53;;;;;;;12.82;8.32;;;17.50;82.60;;;;;;10404708;28;20033;-61
2022/06/22 06:50:59;;;;;;;13.40;7.68;;;17.20;83.80;;;;;;10411391;28;20066;-61
2022/06/22 06:56:20;;;;;;;11.25;7.05;;;17.10;85.40;;;;;;10409278;28;20109;-62
2022/06/22 07:01:24;;;;;;;12.15;6.40;;;17.10;86.80;;;;;;10402384;28;20045;-59
2022/06/22 07:06:28;;;;;;;9.95;5.32;;;17.00;87.30;;;;;;10402453;28;20213;-59
2022/06/22 07:11:31;;;;;;;9.93;6.18;;;17.20;87.20;;;;;;10404584;28;20046;-59
2022/06/22 07:16:32;;;;;;;9.65;5.65;;;17.40;86.80;;;;;;10422332;28;20575;-59
2022/06/22 07:21:54;;;;;;;8.35;5.25;;;17.50;86.50;;;;;;10415229;28;20118;-59
2022/06/22 07:27:10;;;;;;;6.32;5.00;;;17.60;86.60;;;;;;10415038;28;20036;-59
2022/06/22 07:32:19;;;;;;;6.20;4.10;;;17.70;85.80;;;;;;10407419;28;20882;-58
2022/06/22 07:37:34;;;;;;;6.78;4.05;;;17.80;85.50;;;;;;10421020;28;20930;-59
2022/06/22 07:42:35;;;;;;;5.57;3.97;;;17.90;85.40;;;;;;10413672;28;20067;-58
2022/06/22 07:47:51;;;;;;;4.47;3.63;;;17.90;84.70;;;;;;10416045;28;20837;-59
2022/06/22 07:53:04;;;;;;;6.95;3.55;;;18.00;84.60;;;;;;10414201;28;20052;-58
2022/06/22 07:58:21;;;;;;;4.75;3.00;;;18.00;84.20;;;;;;10417843;28;20028;-58
2022/06/22 08:03:37;;;;;;;3.77;2.80;;;18.10;84.20;;;;;;10412613;28;20118;-59
2022/06/22 08:08:52;;;;;;;4.05;3.25;;;18.10;83.70;;;;;;10403483;28;20024;-58
2022/06/22 08:14:07;;;;;;;4.97;2.97;;;18.20;83.60;;;;;;10412145;28;20575;-58
2022/06/22 08:19:07;;;;;;;5.65;2.90;;;18.20;83.60;;;;;;10417177;28;20136;-59
2022/06/22 08:24:11;;;;;;;3.75;2.88;;;18.30;83.20;;;;;;10414397;28;20049;-59
2022/06/22 08:29:15;;;;;;;4.22;2.97;;;18.30;83.10;;;;;;10405630;28;20022;-58
2022/06/22 08:34:26;;;;;;;3.60;2.90;;;18.30;83.00;;;;;;10404395;28;20803;-60
2022/06/22 08:39:43;;;;;;;5.97;3.25;;;18.40;82.90;;;;;;10406553;28;20454;-59
2022/06/22 08:44:56;;;;;;;3.75;2.50;;;18.50;82.90;;;;;;10411323;28;20126;-59
2022/06/22 08:50:45;;;;;;;3.20;2.65;;;18.50;82.70;;;;;;10408691;28;20309;-60
2022/06/22 08:56:07;;;;;;;4.90;2.60;;;18.50;82.70;;;;;;10412722;28;20754;-59
2022/06/22 09:01:46;;;;;;;2.67;2.40;;;18.60;82.40;;;;;;10407673;28;20055;-60
2022/06/22 09:07:05;;;;;;;5.53;2.42;;;18.60;82.30;;;;;;10392656;28;20078;-59
2022/06/22 09:12:38;;;;;;;2.95;2.65;;;18.70;82.40;;;;;;10412809;28;20108;-59
2022/06/22 09:17:53;;;;;;;3.72;2.20;;;18.70;82.20;;;;;;10408573;28;20139;-59
2022/06/22 09:23:18;;;;;;;3.42;2.08;;;18.80;81.90;;;;;;10403167;28;20051;-59
2022/06/22 09:28:29;;;;;;;2.15;1.80;;;18.80;82.20;;;;;;10407765;28;20031;-58
2022/06/22 09:33:46;;;;;;;2.45;2.03;;;18.90;81.50;;;;;;10408251;28;20917;-58
2022/06/22 09:39:00;;;;;;;2.35;2.05;;;18.90;81.20;;;;;;10404706;28;20968;-59
2022/06/22 09:44:00;;;;;;;2.70;1.90;;;19.00;81.00;;;;;;10405898;28;20036;-58
2022/06/22 09:49:26;;;;;;;2.58;2.00;;;19.00;80.70;;;;;;10411407;28;20533;-58
2022/06/22 10:00:55;;;;;;;2.95;1.80;;;19.10;80.40;;;;;;10410842;28;20048;-59
2022/06/22 10:06:05;;;;;;;2.28;1.73;;;19.20;80.10;;;;;;10379450;28;20039;-59
2022/06/22 10:11:27;;;;;;;2.00;1.80;;;19.10;79.60;;;;;;10401485;28;20058;-59
2022/06/22 10:16:40;;;;;;;1.70;1.50;;;19.30;79.50;;;;;;10409471;28;20907;-58
2022/06/22 10:21:40;;;;;;;2.92;1.60;;;19.30;79.20;;;;;;10397602;28;20442;-59
2022/06/22 10:27:07;;;;;;;1.50;1.40;;;19.40;79.10;;;;;;10415959;28;20463;-58
2022/06/22 10:32:19;;;;;;;2.63;1.45;;;19.50;78.60;;;;;;10403068;28;20036;-59
2022/06/22 10:37:29;;;;;;;2.20;1.30;;;19.50;78.60;;;;;;10407619;28;20024;-59
2022/06/22 10:48:31;;;;;;;2.00;1.38;;;19.60;77.90;;;;;;10412096;28;20024;-58
2022/06/22 10:54:06;;;;;;;1.30;1.20;;;19.70;78.00;;;;;;10418587;28;20570;-59
2022/06/22 10:59:38;;;;;;;2.60;1.40;;;19.70;77.20;;;;;;10416994;28;20067;-58
2022/06/22 11:04:54;;;;;;;1.48;1.30;;;19.80;76.80;;;;;;10409041;28;20028;-56
2022/06/22 11:10:19;;;;;;;2.40;1.25;;;19.90;76.90;;;;;;10418160;28;20382;-57
2022/06/22 11:15:41;;;;;;;1.50;1.00;;;19.90;76.50;;;;;;10413578;28;20044;-56
2022/06/22 11:20:45;;;;;;;1.58;1.15;;;20.00;76.20;;;;;;10412596;28;20038;-56
2022/06/22 11:31:42;;;;;;;1.92;1.15;;;20.10;75.90;;;;;;10410288;28;20064;-57
2022/06/22 11:37:12;;;;;;;1.13;1.02;;;20.20;75.50;;;;;;10414239;28;20412;-56
2022/06/22 11:42:22;;;;;;;0.80;0.80;;;20.20;75.30;;;;;;10413626;28;20067;-56
2022/06/22 11:47:41;;;;;;;2.75;1.50;;;20.30;75.20;;;;;;10405322;28;20101;-57
2022/06/22 11:53:27;;;;;;;1.17;1.05;;;20.40;75.10;;;;;;10409003;28;20614;-58
2022/06/22 11:58:28;;;;;;;1.23;0.90;;;20.50;74.60;;;;;;10393412;28;20076;-56
2022/06/22 12:04:05;;;;;;;3.60;1.08;;;20.50;74.90;;;;;;10410905;28;20455;-56
2022/06/22 12:09:36;;;;;;;1.20;1.05;;;20.60;74.20;;;;;;10416627;28;20050;-57
2022/06/22 12:15:06;;;;;;;1.52;1.15;;;20.70;73.80;;;;;;10408919;28;20468;-57
2022/06/22 12:20:25;;;;;;;3.13;1.05;;;20.80;73.80;;;;;;10406939;28;20040;-61
2022/06/22 12:25:44;;;;;;;1.17;1.08;;;21.00;72.40;;;;;;10408732;28;21022;-61
2022/06/22 12:31:12;;;;;;;5.13;1.52;;;21.50;66.50;;;;;;10408930;28;20139;-61
2022/06/22 12:36:22;;;;;;;1.75;1.10;;;21.80;66.20;;;;;;10407480;28;20869;-61
2022/06/22 12:41:31;;;;;;;1.33;0.90;;;22.10;67.10;;;;;;10406509;28;20113;-61
2022/06/22 12:46:32;;;;;;;1.58;1.00;;;22.40;65.40;;;;;;10411300;28;20647;-61
2022/06/22 12:51:51;;;;;;;3.65;1.10;;;22.60;65.60;;;;;;10410727;28;20105;-60
2022/06/22 12:57:11;;;;;;;1.92;1.40;;;22.60;62.90;;;;;;10411660;28;20023;-61
2022/06/22 13:02:15;;;;;;;3.58;1.30;;;22.70;61.80;;;;;;10413550;28;20149;-61
2022/06/22 13:07:19;;;;;;;2.17;1.30;;;22.80;62.80;;;;;;10412226;28;20055;-61
2022/06/22 13:12:36;;;;;;;3.65;1.48;;;23.00;62.50;;;;;;10412563;28;20582;-58
2022/06/22 13:17:49;;;;;;;1.85;1.30;;;23.30;61.20;;;;;;10411818;28;20086;-63
2022/06/22 13:23:15;;;;;;;3.33;1.30;;;23.40;61.20;;;;;;10407394;28;20036;-61
2022/06/22 13:28:34;;;;;;;2.85;1.42;;;23.60;60.10;;;;;;10408872;28;20028;-63
2022/06/22 13:33:46;;;;;;;2.65;1.60;;;23.70;60.00;;;;;;10401632;28;20640;-61
2022/06/22 13:38:50;;;;;;;2.35;1.30;;;23.90;60.80;;;;;;10421157;28;20432;-62
2022/06/22 13:44:13;;;;;;;2.55;1.45;;;23.90;60.70;;;;;;10418586;28;20036;-62
2022/06/22 13:49:27;;;;;;;1.75;1.52;;;23.90;58.30;;;;;;10417629;28;20040;-61
2022/06/22 13:54:50;;;;;;;1.58;1.40;;;24.00;60.10;;;;;;10411783;28;20373;-62
2022/06/22 14:00:08;;;;;;;3.22;1.20;;;24.20;57.50;;;;;;10414900;28;20040;-62
2022/06/22 14:05:41;;;;;;;2.50;1.83;;;24.30;58.90;;;;;;10409262;28;20044;-63
2022/06/22 14:10:55;;;;;;;2.63;1.30;;;24.40;58.30;;;;;;10414495;28;20324;-60
2022/06/22 14:16:06;;;;;;;2.40;1.50;;;24.60;56.70;;;;;;10404920;28;20130;-62
2022/06/22 14:21:22;;;;;;;1.85;1.40;;;24.70;58.40;;;;;;10412370;28;20553;-61
2022/06/22 14:26:44;;;;;;;3.60;1.65;;;24.80;58.30;;;;;;10410409;28;20140;-62
2022/06/22 14:32:12;;;;;;;3.90;1.75;;;24.90;57.50;;;;;;10407671;28;20036;-61
2022/06/22 14:37:29;;;;;;;5.03;1.83;;;25.00;57.60;;;;;;10410774;28;20024;-61
2022/06/22 14:42:49;;;;;;;3.95;1.60;;;25.20;57.30;;;;;;10416029;28;20052;-60
2022/06/22 14:47:53;;;;;;;3.70;1.90;;;25.30;56.60;;;;;;10416744;28;20039;-61
2022/06/22 14:53:03;;;;;;;4.95;2.05;;;25.30;58.70;;;;;;10410816;28;20037;-60
2022/06/22 14:58:32;;;;;;;3.40;1.60;;;25.40;58.60;;;;;;10413825;28;20938;-61
2022/06/22 15:04:05;;;;;;;2.97;1.70;;;25.40;58.00;;;;;;10415639;28;20966;-61
2022/06/22 15:09:10;;;;;;;2.22;1.65;;;25.40;58.60;;;;;;10391849;28;20035;-61
2022/06/22 15:14:23;;;;;;;4.35;2.00;;;25.50;58.60;;;;;;10416049;28;20942;-60
2022/06/22 15:19:37;;;;;;;5.65;2.45;;;25.40;58.30;;;;;;10414238;28;20029;-61
2022/06/22 15:25:06;;;;;;;3.20;2.10;;;25.40;58.10;;;;;;10411950;28;20070;-61
2022/06/22 15:30:12;;;;;;;3.08;1.95;;;25.40;57.40;;;;;;10410475;28;20032;-61
2022/06/22 15:35:25;;;;;;;3.15;1.80;;;25.30;58.50;;;;;;10412335;28;20106;-61
2022/06/22 15:40:48;;;;;;;2.67;1.92;;;25.20;59.10;;;;;;10412382;28;20031;-60
2022/06/22 15:46:11;;;;;;;3.92;1.90;;;25.00;58.10;;;;;;10408687;28;20047;-60
2022/06/22 15:51:35;;;;;;;4.40;2.00;;;24.90;58.40;;;;;;10412552;28;20033;-61
2022/06/22 15:56:48;;;;;;;3.80;2.35;;;24.80;58.80;;;;;;10406776;28;20041;-60
2022/06/22 16:01:51;;;;;;;3.28;2.33;;;24.70;60.40;;;;;;10409719;28;21060;-61
2022/06/22 16:07:11;;;;;;;7.55;3.28;;;24.50;60.70;;;;;;10409777;28;20815;-63
2022/06/22 16:17:51;;;;;;;5.78;2.70;;;24.30;61.00;;;;;;10415427;28;20044;-60
2022/06/22 16:22:57;;;;;;;4.88;2.78;;;24.20;61.80;;;;;;10417078;28;20067;-60
2022/06/22 16:28:09;;;;;;;5.40;2.92;;;24.10;61.90;;;;;;10414389;28;20317;-60
2022/06/22 16:33:17;;;;;;;3.22;2.65;;;24.00;62.00;;;;;;10409259;28;20039;-60
2022/06/22 16:38:41;;;;;;;7.00;2.95;;;23.90;62.50;;;;;;10406467;28;20067;-62
2022/06/22 16:43:51;;;;;;;5.40;2.25;;;23.90;62.90;;;;;;10396495;28;20048;-59
2022/06/22 16:48:57;;;;;;;4.55;2.80;;;23.90;63.00;;;;;;10408615;28;20013;-59
2022/06/22 16:54:05;;;;;;;4.53;2.50;;;23.80;62.90;;;;;;10408669;28;20039;-60
2022/06/22 16:59:16;;;;;;;4.82;2.63;;;23.80;63.30;;;;;;10408990;28;20024;-60
2022/06/22 17:04:22;;;;;;;5.82;2.78;;;23.80;62.90;;;;;;10415250;28;20758;-59
2022/06/22 17:09:35;;;;;;;3.78;2.70;;;23.70;62.90;;;;;;10413776;28;20862;-59
2022/06/22 17:14:38;;;;;;;6.22;2.65;;;23.60;62.90;;;;;;10415257;28;20056;-59
2022/06/22 17:19:42;;;;;;;6.20;2.50;;;23.60;63.50;;;;;;10411119;28;20054;-58
2022/06/22 17:25:04;;;;;;;4.18;2.30;;;23.60;63.60;;;;;;10413035;28;20942;-59
2022/06/22 17:30:09;;;;;;;4.50;2.67;;;23.50;63.90;;;;;;10407307;28;20143;-59
2022/06/22 17:35:27;;;;;;;7.63;3.80;;;23.50;64.80;;;;;;10406750;28;20027;-58
2022/06/22 17:40:56;;;;;;;9.93;4.63;;;23.40;68.50;;;;;;10406444;28;20026;-58
2022/06/22 17:46:05;;;;;;;7.90;4.75;;;23.20;69.30;;;;;;10414292;28;20032;-59
2022/06/22 17:51:20;;;;;;;10.73;4.40;;;23.10;69.60;;;;;;10407372;28;20955;-60
2022/06/22 17:56:26;;;;;;;8.40;4.32;;;22.90;71.00;;;;;;10409065;28;20088;-61
2022/06/22 18:01:43;;;;;;;14.20;5.07;;;22.80;72.50;;;;;;10405192;28;20044;-59
2022/06/22 18:06:48;;;;;;;8.60;5.20;;;22.60;73.60;;;;;;10398630;28;20075;-60
2022/06/22 18:11:52;;;;;;;11.95;5.40;;;22.50;73.40;;;;;;10403605;28;20835;-60
2022/06/22 18:16:58;;;;;;;10.88;5.50;;;22.40;73.90;;;;;;10406191;28;20048;-60
2022/06/22 18:22:06;;;;;;;11.18;5.20;;;22.20;74.60;;;;;;10405012;28;20113;-60
2022/06/22 18:27:11;;;;;;;11.07;5.70;;;22.10;75.20;;;;;;10402706;28;20028;-60
2022/06/22 18:32:24;;;;;;;9.27;4.88;;;22.00;75.20;;;;;;10400294;28;20039;-61
2022/06/22 18:37:48;;;;;;;8.88;4.50;;;21.90;76.50;;;;;;10402760;28;20028;-58
2022/06/22 18:43:00;;;;;;;6.10;3.42;;;21.90;76.20;;;;;;10405355;28;20037;-58
2022/06/22 18:48:20;;;;;;;8.57;3.95;;;22.10;75.60;;;;;;10404090;28;20870;-58
2022/06/22 18:53:31;;;;;;;5.22;4.05;;;22.30;75.30;;;;;;10409670;28;20904;-58
2022/06/22 18:58:41;;;;;;;5.70;3.22;;;22.40;75.40;;;;;;10397311;28;20017;-58
2022/06/22 19:04:02;;;;;;;5.45;3.25;;;22.60;74.60;;;;;;10400285;28;20039;-58
2022/06/22 19:09:37;;;;;;;6.13;3.30;;;22.70;74.70;;;;;;10389194;28;20044;-57
2022/06/22 19:14:39;;;;;;;4.28;3.40;;;22.70;74.30;;;;;;10406946;28;20898;-57
2022/06/22 19:20:24;;;;;;;8.18;3.83;;;22.70;74.00;;;;;;10409510;28;20028;-57
2022/06/22 19:25:51;;;;;;;4.47;2.78;;;22.80;74.30;;;;;;10409642;28;20526;-58
2022/06/22 19:31:20;;;;;;;3.50;2.85;;;22.80;74.20;;;;;;10411595;28;20082;-57
2022/06/22 19:36:45;;;;;;;3.88;2.80;;;22.80;74.20;;;;;;10413257;28;20032;-58
2022/06/22 19:42:13;;;;;;;5.32;2.70;;;22.80;74.10;;;;;;10413769;28;20040;-58
2022/06/22 19:47:25;;;;;;;3.80;2.63;;;22.70;74.00;;;;;;10406937;28;20121;-57
2022/06/22 19:52:47;;;;;;;5.97;3.30;;;22.70;74.00;;;;;;10416867;28;20024;-57
2022/06/22 19:57:51;;;;;;;6.15;2.83;;;22.70;74.10;;;;;;10414354;28;20024;-58
2022/06/22 20:03:09;;;;;;;4.15;2.67;;;22.70;74.00;;;;;;10416166;28;20024;-57
2022/06/22 20:08:14;;;;;;;3.33;2.70;;;22.60;74.00;;;;;;10415361;28;20032;-57
2022/06/22 20:13:32;;;;;;;3.58;2.63;;;22.60;74.00;;;;;;10409803;28;20823;-59
2022/06/22 20:18:35;;;;;;;3.40;2.53;;;22.50;74.10;;;;;;10419252;28;20048;-58
2022/06/22 20:24:09;;;;;;;2.95;2.65;;;22.50;74.10;;;;;;10411864;28;20074;-58
2022/06/22 20:29:37;;;;;;;3.65;2.53;;;22.50;74.30;;;;;;10503433;28;20043;-58
2022/06/22 20:35:05;;;;;;;4.25;2.20;;;22.40;74.20;;;;;;10500142;28;20082;-57
2022/06/22 20:40:16;;;;;;;3.35;2.38;;;22.40;74.30;;;;;;10499919;28;20110;-58
2022/06/22 20:45:34;;;;;;;3.05;2.20;;;22.30;74.20;;;;;;10511087;28;20060;-57
2022/06/22 20:50:45;;;;;;;3.25;2.42;;;22.30;74.40;;;;;;10501140;28;20039;-57
2022/06/22 20:56:19;;;;;;;3.85;2.20;;;22.30;74.40;;;;;;10501941;28;20025;-57
2022/06/22 21:01:20;;;;;;;4.63;2.38;;;22.20;74.40;;;;;;10492521;28;20056;-60
2022/06/22 21:06:28;;;;;;;2.63;2.10;;;22.10;74.40;;;;;;10509536;28;20023;-57
2022/06/22 21:11:31;;;;;;;3.35;2.10;;;22.10;74.50;;;;;;10495951;28;20029;-58
2022/06/22 21:16:32;;;;;;;3.08;2.10;;;22.10;74.50;;;;;;10510532;28;20032;-57
2022/06/22 21:22:01;;;;;;;2.67;1.92;;;22.00;74.50;;;;;;10506798;28;20476;-57
2022/06/22 21:27:11;;;;;;;2.80;1.90;;;22.00;74.70;;;;;;10509242;28;20043;-57
2022/06/22 21:32:20;;;;;;;2.15;1.90;;;21.90;74.70;;;;;;10503395;28;20171;-56
2022/06/22 21:37:48;;;;;;;3.13;2.03;;;21.90;74.70;;;;;;10506655;28;20036;-56
2022/06/22 21:43:30;;;;;;;3.45;2.00;;;21.80;74.70;;;;;;10498647;28;20044;-58
2022/06/22 21:48:41;;;;;;;4.03;2.20;;;21.80;74.80;;;;;;10499394;28;20781;-59
2022/06/22 21:54:27;;;;;;;4.00;1.80;;;21.80;74.90;;;;;;10503101;28;20111;-59
2022/06/22 21:59:44;;;;;;;3.60;2.08;;;21.70;74.90;;;;;;10504528;28;20577;-59
2022/06/22 22:05:06;;;;;;;2.72;2.10;;;21.70;75.00;;;;;;10503138;28;20043;-59
2022/06/22 22:10:11;;;;;;;2.60;1.88;;;21.60;74.90;;;;;;10509243;28;20021;-56
2022/06/22 22:15:27;;;;;;;4.55;2.17;;;21.60;75.10;;;;;;10511020;28;20405;-59
2022/06/22 22:20:33;;;;;;;2.97;1.88;;;21.50;75.10;;;;;;10504792;28;20370;-56
2022/06/22 22:25:38;;;;;;;4.00;1.73;;;21.50;75.10;;;;;;10502793;28;20682;-59
2022/06/22 22:30:45;;;;;;;2.50;1.80;;;21.40;75.10;;;;;;10505818;28;20536;-58
2022/06/22 22:35:49;;;;;;;2.10;1.65;;;21.40;75.20;;;;;;10512133;28;20024;-57
2022/06/22 22:40:54;;;;;;;1.60;1.50;;;21.30;75.20;;;;;;10502085;28;20055;-57
2022/06/22 22:46:06;;;;;;;2.05;1.80;;;21.30;75.30;;;;;;10507268;28;20017;-56
2022/06/22 22:51:29;;;;;;;6.07;1.90;;;21.30;75.30;;;;;;10512926;28;20032;-56
2022/06/22 22:56:30;;;;;;;1.77;1.65;;;21.20;75.30;;;;;;10512114;28;20032;-57
2022/06/22 23:01:34;;;;;;;2.13;1.70;;;21.20;75.40;;;;;;10508182;28;20044;-56
2022/06/22 23:06:40;;;;;;;2.70;1.48;;;21.10;75.40;;;;;;10508607;28;20028;-56
2022/06/22 23:11:42;;;;;;;2.50;1.65;;;21.10;76.10;;;;;;10511538;28;20369;-59
2022/06/22 23:16:44;;;;;;;3.10;1.75;;;21.10;75.60;;;;;;10505910;28;20154;-57
2022/06/22 23:21:47;;;;;;;2.42;1.58;;;21.00;75.60;;;;;;10504333;28;20047;-56
2022/06/22 23:26:52;;;;;;;2.35;1.60;;;21.00;75.70;;;;;;10506750;28;20392;-56
2022/06/22 23:31:56;;;;;;;2.58;1.70;;;20.90;75.70;;;;;;10510731;28;20032;-56
2022/06/22 23:36:57;;;;;;;3.63;1.67;;;20.90;75.70;;;;;;10502689;28;20039;-57
2022/06/22 23:42:06;;;;;;;2.70;1.50;;;20.90;75.80;;;;;;10509663;28;20028;-56
2022/06/22 23:52:37;;;;;;;3.97;1.60;;;20.80;75.90;;;;;;10505804;28;20082;-57
2022/06/22 23:57:39;;;;;;;2.53;1.60;;;20.80;76.00;;;;;;10499486;28;20479;-55
